Terminal Aerodrome Forecast
Issued by NWS Wilmington, OH

Current Version | Previous Version | Text Only | Print | Product List | Glossary Off
Versions: 1 2 3 4 5 6 7 8 9 10 11 12 13 14 15 16 17 18 19 20 21 22 23

000
FTUS41 KILN 261100
TAFDAY
TAF
KDAY 261130Z 2612/2712 02010KT P6SM VCSH OVC040
      TEMPO 2613/2617 4SM -SN OVC020
     FM261700 01012KT P6SM VCSH OVC018
     FM270200 35009KT P6SM SCT015 OVC030
     FM271000 35006KT P6SM SCT035=

USA.gov is the U.S. government's official web portal to all federal, state and local government web resources and services.